Roy Baker — WDC2698 — position and weather

sailwx.info

Track history (hours):
 
Tides and Currents Weather Stations Pressure Air Temp Water Temp Dewpoint Dewpoint Depression Visibility Wind Speed Wind Dir Waves Ship Positions

Roy Baker

Owner: Kirby Inland Marine LP, Houston, TX. More information available from US FCC via Universal Licensing System and Coast Guard Vessel Documentation Center.

Last reported at 2015-May-19 01:17 UTC. Time now 2015-May-27 03:40 UTC.
Position N 29°33' W 090°54'.
Warning: this ship's position is 8 days out of date.

Length 24 m; draft 2.3 m.

Type: Towing. MMSI: 366996540.

Date/timePositionNaut miles runAvg speedWind from/ knotsBaromVisibWave heightAir tempDewpointWater temp
2015-May-19 01:17N 29°33' W 090°54'5 7.5
2015-May-19 00:33N 29°32' W 090°47'6 5.6
2015-May-18 23:33N 29°36' W 090°43'5 5.2
2015-May-18 22:33N 29°35' W 090°37'39 4.9
2015-May-18 14:31N 29°55' W 089°58'4 3.8
2015-May-18 13:26N 29°58' W 090°02'0 0.5
2015-May-18 12:33N 29°58' W 090°01'0 0.0
2015-May-18 11:31N 29°58' W 090°01'0 0.0
2015-May-18 10:31N 29°58' W 090°01'3 3.4
2015-May-18 09:33N 30°00' W 089°58'  
2015-May-11 00:10N 30°00' W 089°57'4 6.4
2015-May-10 23:32N 29°59' W 090°01'1 1.3
2015-May-10 22:26N 29°58' W 090°02'2 2.2
2015-May-10 21:28N 29°56' W 089°60'0 0.4
2015-May-10 20:27N 29°56' W 089°60'0 0.0
2015-May-10 19:27N 29°56' W 089°60'0 0.0
2015-May-10 18:32N 29°56' W 089°60'0 0.0
2015-May-10 17:30N 29°56' W 089°60'0 0.0
2015-May-10 16:31N 29°56' W 089°60'0 0.0
2015-May-10 15:34N 29°56' W 089°60'0 0.0
2015-May-10 14:33N 29°56' W 089°60'0 0.0
2015-May-10 13:33N 29°56' W 089°60'0 0.0
2015-May-10 12:16N 29°56' W 089°60'0 0.0
2015-May-10 11:03N 29°56' W 089°60'0 0.0
2015-May-10 10:28N 29°56' W 089°60'0 0.0
2015-May-10 07:23N 29°56' W 089°60'1 0.1
2015-May-09 19:32N 29°55' W 089°59'4 0.4
2015-May-09 11:05N 29°51' W 090°01'1 2.5
2015-May-09 10:32N 29°50' W 090°02'30 3.8
2015-May-09 02:33N 29°34' W 090°31'6 5.8
2015-May-09 01:33N 29°35' W 090°38'  
Track history (hours):
 
Tides and Currents Weather Stations Pressure Air Temp Water Temp Dewpoint Dewpoint Depression Visibility Wind Speed Wind Dir Waves Ship Positions

Roy Baker

Owner: Kirby Inland Marine LP, Houston, TX. More information available from US FCC via Universal Licensing System and Coast Guard Vessel Documentation Center.

Last reported at 2015-May-19 01:17 UTC. Time now 2015-May-27 03:40 UTC.
Position N 29°33' W 090°54'.
Warning: this ship's position is 8 days out of date.

Length 24 m; draft 2.3 m.

Type: Towing. MMSI: 366996540.

Date/timePositionNaut miles runAvg speedWind from/ knotsBaromVisibWave heightAir tempDewpointWater temp
2015-May-19 01:17N 29°33' W 090°54'5 7.5
2015-May-19 00:33N 29°32' W 090°47'6 5.6
2015-May-18 23:33N 29°36' W 090°43'5 5.2
2015-May-18 22:33N 29°35' W 090°37'39 4.9
2015-May-18 14:31N 29°55' W 089°58'4 3.8
2015-May-18 13:26N 29°58' W 090°02'0 0.5
2015-May-18 12:33N 29°58' W 090°01'0 0.0
2015-May-18 11:31N 29°58' W 090°01'0 0.0
2015-May-18 10:31N 29°58' W 090°01'3 3.4
2015-May-18 09:33N 30°00' W 089°58'  
2015-May-11 00:10N 30°00' W 089°57'4 6.4
2015-May-10 23:32N 29°59' W 090°01'1 1.3
2015-May-10 22:26N 29°58' W 090°02'2 2.2
2015-May-10 21:28N 29°56' W 089°60'0 0.4
2015-May-10 20:27N 29°56' W 089°60'0 0.0
2015-May-10 19:27N 29°56' W 089°60'0 0.0
2015-May-10 18:32N 29°56' W 089°60'0 0.0
2015-May-10 17:30N 29°56' W 089°60'0 0.0
2015-May-10 16:31N 29°56' W 089°60'0 0.0
2015-May-10 15:34N 29°56' W 089°60'0 0.0
2015-May-10 14:33N 29°56' W 089°60'0 0.0
2015-May-10 13:33N 29°56' W 089°60'0 0.0
2015-May-10 12:16N 29°56' W 089°60'0 0.0
2015-May-10 11:03N 29°56' W 089°60'0 0.0
2015-May-10 10:28N 29°56' W 089°60'0 0.0
2015-May-10 07:23N 29°56' W 089°60'1 0.1
2015-May-09 19:32N 29°55' W 089°59'4 0.4
2015-May-09 11:05N 29°51' W 090°01'1 2.5
2015-May-09 10:32N 29°50' W 090°02'30 3.8
2015-May-09 02:33N 29°34' W 090°31'6 5.8
2015-May-09 01:33N 29°35' W 090°38'  

Dump ship's entire track history